Terminal Aerodrome Forecast
Issued by NWS Shreveport, LA

Current Version | Previous Version | Text Only | Print | Product List | Glossary On
Versions: 1 2 3 4 5 6 7 8 9 10 11 12 13 14 15 16 17 18 19 20 21 22 23
906
FTUS44 KSHV 071327 AAA
TAFLFK
TAF AMD
KLFK 071327Z 0713/0812 00000KT 3SM BR SKC
      TEMPO 0713/0715 1/4SM FZFG VV002
     FM071500 17003KT P6SM SKC
     FM071800 21006KT P6SM SKC
     FM080000 19004KT P6SM SKC
     FM080600 32003KT P6SM SKC=

USA.gov is the U.S. government's official web portal to all federal, state and local government web resources and services.